createdAt,value
2023-02-23T00:00:28.488Z,7.20
2023-02-23T00:05:35.375Z,7.30
2023-02-23T00:10:38.372Z,7.50
2023-02-23T00:15:40.982Z,6.80
2023-02-23T00:20:48.056Z,7.40
2023-02-23T00:25:50.608Z,7.60
2023-02-23T00:30:53.074Z,7.60
2023-02-23T00:35:55.652Z,7.70
2023-02-23T00:40:58.273Z,7.60
2023-02-23T00:46:05.546Z,7.30
2023-02-23T00:51:08.011Z,7.70
2023-02-23T00:56:14.492Z,7.80
2023-02-23T01:01:18.401Z,7.80
2023-02-23T01:06:21.803Z,7.60
2023-02-23T01:11:33.657Z,7.90
2023-02-23T01:16:37.074Z,7.90
2023-02-23T01:21:42.543Z,7.80
2023-02-23T01:26:45.682Z,8.10
2023-02-23T01:31:51.320Z,7.90
2023-02-23T01:36:54.229Z,7.30
2023-02-23T01:41:56.701Z,7.30
2023-02-23T01:46:59.272Z,7.50
2023-02-23T01:52:07.464Z,7.80
2023-02-23T01:57:14.657Z,6.90
2023-02-23T02:02:23.688Z,6.70
2023-02-23T02:07:29.944Z,7.10
2023-02-23T02:12:33.095Z,6.90
2023-02-23T02:17:54.399Z,7.30
2023-02-23T02:23:17.944Z,7.10
2023-02-23T02:28:42.366Z,7.00
2023-02-23T02:34:00.318Z,7.20
2023-02-23T02:39:22.892Z,7.10
2023-02-23T02:44:44.160Z,6.70
2023-02-23T02:50:12.745Z,6.90
2023-02-23T02:55:23.899Z,6.00
2023-02-23T03:00:55.295Z,6.30
2023-02-23T03:06:17.151Z,5.90
2023-02-23T03:11:38.237Z,6.50
2023-02-23T03:17:38.513Z,6.70
2023-02-23T03:23:12.358Z,6.30
2023-02-23T03:28:39.935Z,6.20
2023-02-23T03:34:14.020Z,6.60
2023-02-23T03:39:55.416Z,6.70
2023-02-23T03:45:20.965Z,6.50
2023-02-23T03:50:49.624Z,6.70
2023-02-23T03:56:15.201Z,7.00
2023-02-23T04:01:38.488Z,7.30
2023-02-23T04:07:03.284Z,7.70
2023-02-23T04:12:52.142Z,7.50
2023-02-23T04:17:54.903Z,8.10
2023-02-23T04:22:57.441Z,8.30
2023-02-23T04:28:00.075Z,7.60
2023-02-23T04:33:02.709Z,7.80
2023-02-23T04:38:05.632Z,7.60
2023-02-23T04:43:09.533Z,8.20
2023-02-23T04:48:12.243Z,7.80
2023-02-23T04:53:14.857Z,8.40
2023-02-23T04:58:17.400Z,7.50
2023-02-23T05:03:19.831Z,7.60
2023-02-23T05:08:22.234Z,7.70
2023-02-23T05:13:25.016Z,7.00
2023-02-23T05:18:30.674Z,7.00
2023-02-23T05:23:35.106Z,7.20
2023-02-23T05:28:39.834Z,7.10
2023-02-23T05:33:42.763Z,7.30
2023-02-23T05:38:46.819Z,7.60
2023-02-23T05:43:52.426Z,7.50
2023-02-23T05:49:00.881Z,7.80
2023-02-23T05:54:03.525Z,8.30
2023-02-23T05:59:06.118Z,8.20
2023-02-23T06:04:08.995Z,7.80
2023-02-23T06:09:11.715Z,7.80
2023-02-23T06:14:16.503Z,8.30
2023-02-23T06:19:19.074Z,8.10
2023-02-23T06:24:21.663Z,8.70
2023-02-23T06:29:24.398Z,9.80
2023-02-23T06:34:27.053Z,9.40
2023-02-23T06:39:29.712Z,9.20
2023-02-23T06:44:35.386Z,8.40
2023-02-23T06:49:38.141Z,9.20
2023-02-23T06:54:41.945Z,8.90
2023-02-23T06:59:44.784Z,9.40
2023-02-23T07:04:47.515Z,9.10
2023-02-23T07:09:50.063Z,8.80
2023-02-23T07:14:52.845Z,7.90
2023-02-23T07:19:55.637Z,7.70
2023-02-23T07:24:58.148Z,7.80
2023-02-23T07:30:00.799Z,8.20
2023-02-23T07:35:04.723Z,8.60
2023-02-23T07:40:08.080Z,8.70
2023-02-23T07:45:11.343Z,8.00
2023-02-23T07:50:14.607Z,8.10
2023-02-23T07:55:17.380Z,8.80
2023-02-23T08:00:20.226Z,9.40
2023-02-23T08:05:24.372Z,10.00
2023-02-23T08:10:28.109Z,9.40
2023-02-23T08:15:31.777Z,9.60
2023-02-23T08:20:34.380Z,10.00
2023-02-23T08:25:37.024Z,9.90
2023-02-23T08:30:41.495Z,9.30
2023-02-23T08:35:45.171Z,10.30
2023-02-23T08:40:47.788Z,10.70
2023-02-23T08:45:50.300Z,9.90
2023-02-23T08:50:57.667Z,10.50
2023-02-23T08:56:02.295Z,9.70
2023-02-23T09:01:05.622Z,9.90
2023-02-23T09:06:14.079Z,9.30
2023-02-23T09:11:17.070Z,9.10
2023-02-23T09:16:19.790Z,9.20
2023-02-23T09:21:25.423Z,8.40
2023-02-23T09:26:29.422Z,9.20
2023-02-23T09:31:31.926Z,10.10
2023-02-23T09:36:34.623Z,9.80
2023-02-23T09:42:01.494Z,9.50
2023-02-23T09:47:18.935Z,9.70
2023-02-23T09:52:39.401Z,10.00
2023-02-23T09:57:48.722Z,10.30
2023-02-23T10:03:28.284Z,10.30
2023-02-23T10:08:39.919Z,9.90
2023-02-23T10:13:58.554Z,10.30
2023-02-23T10:19:27.372Z,10.40
2023-02-23T10:24:32.990Z,10.50
2023-02-23T10:29:43.138Z,10.70
2023-02-23T10:34:48.434Z,10.70
2023-02-23T10:39:52.427Z,10.50
2023-02-23T10:44:55.613Z,9.70
2023-02-23T10:49:59.064Z,9.40
2023-02-23T10:55:06.518Z,9.30
2023-02-23T11:00:12.704Z,9.70
2023-02-23T11:05:43.063Z,9.40
2023-02-23T11:10:58.665Z,9.50
2023-02-23T11:16:10.336Z,10.20
2023-02-23T11:21:18.629Z,10.90
2023-02-23T11:26:33.387Z,11.50
2023-02-23T11:31:37.037Z,11.30
2023-02-23T11:36:39.701Z,11.40
2023-02-23T11:41:42.585Z,11.50
2023-02-23T11:46:46.759Z,11.50
2023-02-23T11:51:52.391Z,11.40
2023-02-23T11:56:57.589Z,11.20
2023-02-23T12:02:25.732Z,11.60
2023-02-23T12:07:34.944Z,11.30
2023-02-23T12:13:02.237Z,11.60
2023-02-23T12:18:20.809Z,11.60
2023-02-23T12:23:29.993Z,12.50
2023-02-23T12:29:04.201Z,12.40
2023-02-23T12:34:28.744Z,12.10
2023-02-23T12:39:44.024Z,11.80
2023-02-23T12:44:53.742Z,11.40
2023-02-23T12:50:13.179Z,11.60
2023-02-23T12:55:19.451Z,12.20
2023-02-23T13:00:58.344Z,12.00
2023-02-23T13:06:31.596Z,12.30
2023-02-23T13:11:52.010Z,11.90
2023-02-23T13:17:05.722Z,11.40
2023-02-23T13:22:22.735Z,11.40
2023-02-23T13:27:35.807Z,11.50
2023-02-23T13:32:39.625Z,11.70
2023-02-23T13:37:54.552Z,11.80
2023-02-23T13:43:17.606Z,11.80
2023-02-23T13:48:55.905Z,11.70
2023-02-23T13:54:16.444Z,11.70
2023-02-23T13:59:31.321Z,11.30
2023-02-23T14:04:42.523Z,11.20
2023-02-23T14:09:53.626Z,11.10
2023-02-23T14:14:56.137Z,11.20
2023-02-23T14:20:06.811Z,11.60
2023-02-23T14:25:34.497Z,12.00
2023-02-23T14:30:51.291Z,11.90
2023-02-23T14:35:54.814Z,11.60
2023-02-23T14:40:57.576Z,11.20
2023-02-23T14:46:05.982Z,11.10
2023-02-23T14:51:34.443Z,10.60
2023-02-23T14:56:47.200Z,10.30
2023-02-23T15:01:51.428Z,9.10
2023-02-23T15:07:00.627Z,9.60
2023-02-23T15:12:18.143Z,10.90
2023-02-23T15:17:24.132Z,11.20
2023-02-23T15:22:29.448Z,10.90
2023-02-23T15:27:43.083Z,10.50
2023-02-23T15:32:46.068Z,10.40
2023-02-23T15:37:59.474Z,10.20
2023-02-23T15:43:13.210Z,10.00
2023-02-23T15:48:20.935Z,9.80
2023-02-23T15:53:27.506Z,9.70
2023-02-23T15:58:41.827Z,9.70
2023-02-23T16:04:18.990Z,9.20
2023-02-23T16:09:22.173Z,8.90
2023-02-23T16:14:26.359Z,8.70
2023-02-23T16:19:29.652Z,8.60
2023-02-23T16:24:32.180Z,8.50
2023-02-23T16:29:41.646Z,8.40
2023-02-23T16:35:18.252Z,8.30
2023-02-23T16:40:21.178Z,8.80
2023-02-23T16:45:23.719Z,9.50
2023-02-23T16:50:26.259Z,9.70
2023-02-23T16:55:29.993Z,10.70
2023-02-23T17:00:33.502Z,11.20
2023-02-23T17:05:36.165Z,11.10
2023-02-23T17:10:41.384Z,10.40
2023-02-23T17:15:50.576Z,9.30
2023-02-23T17:20:54.435Z,8.80
2023-02-23T17:25:57.653Z,8.50
2023-02-23T17:31:01.693Z,8.30
2023-02-23T17:36:06.894Z,8.10
2023-02-23T17:41:15.547Z,8.00
2023-02-23T17:46:19.091Z,8.00
2023-02-23T17:51:22.079Z,8.00
2023-02-23T17:56:24.829Z,7.90
2023-02-23T18:01:27.420Z,8.40
2023-02-23T18:06:30.707Z,9.80
2023-02-23T18:11:36.815Z,9.60
2023-02-23T18:16:39.459Z,9.40
2023-02-23T18:21:42.159Z,9.20
2023-02-23T18:26:44.873Z,8.70
2023-02-23T18:31:49.782Z,8.30
2023-02-23T18:36:52.485Z,8.00
2023-02-23T18:41:55.001Z,7.80
2023-02-23T18:46:57.629Z,7.80
2023-02-23T18:52:00.257Z,7.70
2023-02-23T18:57:02.870Z,7.60
2023-02-23T19:02:05.425Z,7.50
2023-02-23T19:07:07.869Z,8.10
2023-02-23T19:12:11.933Z,8.60
2023-02-23T19:17:14.633Z,8.90
2023-02-23T19:22:17.566Z,8.90
2023-02-23T19:27:20.144Z,8.90
2023-02-23T19:32:22.836Z,8.90
2023-02-23T19:37:25.454Z,8.30
2023-02-23T19:42:28.034Z,8.30
2023-02-23T19:47:30.542Z,8.90
2023-02-23T19:52:34.795Z,10.10
2023-02-23T19:57:37.547Z,10.10
2023-02-23T20:02:44.575Z,9.40
2023-02-23T20:07:48.413Z,9.00
2023-02-23T20:12:53.193Z,8.60
2023-02-23T20:17:55.772Z,8.50
2023-02-23T20:22:58.387Z,8.30
2023-02-23T20:28:01.072Z,8.20
2023-02-23T20:33:10.731Z,8.20
2023-02-23T20:38:15.366Z,8.40
2023-02-23T20:43:18.631Z,9.00
2023-02-23T20:48:21.300Z,9.50
2023-02-23T20:53:25.769Z,10.10
2023-02-23T20:58:28.520Z,10.40
2023-02-23T21:03:31.116Z,10.40
2023-02-23T21:08:33.647Z,10.60
2023-02-23T21:13:36.698Z,10.10
2023-02-23T21:18:39.346Z,10.20
2023-02-23T21:23:45.203Z,10.20
2023-02-23T21:28:48.435Z,10.10
2023-02-23T21:33:51.081Z,10.40
2023-02-23T21:38:53.612Z,10.50
2023-02-23T21:43:56.232Z,10.60
2023-02-23T21:48:59.086Z,10.60
2023-02-23T21:54:01.598Z,11.00
2023-02-23T21:59:05.980Z,10.70
2023-02-23T22:04:11.122Z,10.90
2023-02-23T22:09:16.693Z,11.10
2023-02-23T22:14:19.274Z,11.10
2023-02-23T22:19:21.910Z,11.40
2023-02-23T22:24:24.497Z,11.50
2023-02-23T22:29:27.432Z,11.90
2023-02-23T22:34:29.921Z,12.40
2023-02-23T22:39:33.426Z,12.40
2023-02-23T22:44:39.006Z,12.40
2023-02-23T22:49:41.454Z,12.60
2023-02-23T22:54:46.209Z,12.70
2023-02-23T23:00:00.097Z,12.30
2023-02-23T23:05:04.216Z,12.40
2023-02-23T23:10:09.314Z,12.60
2023-02-23T23:15:15.136Z,12.60
2023-02-23T23:20:25.653Z,13.00
2023-02-23T23:25:29.687Z,13.00
2023-02-23T23:30:35.290Z,12.70
2023-02-23T23:35:38.275Z,12.70
2023-02-23T23:40:47.031Z,12.70
2023-02-23T23:45:51.783Z,12.40
2023-02-23T23:50:56.253Z,12.50
2023-02-23T23:56:05.404Z,13.30
